Richland, Oregon
Current Conditions -  °F | °C
As of 8:53 PM on Monday 20 Oct 2014 (Local Time) from KBKE Reporting Station
Light Rain Light Rain  
Wind Chill: 42°   Ceiling: Unl
Heat Index: 49°   Visibility: 10mi
Dew Point: 40°   Wind: 22mph
Humidity: 71%   Direction: 320°NW
Pressure: 29.83"   Gusts: 31mph
Location:  44.77°N, 117.17°W
Report Text: KBKE 210353Z AUTO 32019G27KT 10SM -RA FEW110 09/04 A2983 RMK AO2 PK WND 32027/0351 SLP091 P0000 T00940044
Loading
Personal Weather Stations






























Interactive Weather Map
Tropical Storm Tracking
New forecast layout! Learn more

10-Day Weather Forecast

Advertisements
Track Severe Weather on mobile